createdAt,value
2018-07-24T00:00:49.884Z,100096.00
2018-07-24T00:03:20.102Z,100092.00
2018-07-24T00:05:50.503Z,100091.00
2018-07-24T00:08:20.904Z,100091.00
2018-07-24T00:10:51.676Z,100092.00
2018-07-24T00:13:21.888Z,100083.00
2018-07-24T00:15:52.044Z,100095.00
2018-07-24T00:18:22.244Z,100105.00
2018-07-24T00:20:53.266Z,100097.00
2018-07-24T00:23:23.352Z,100107.00
2018-07-24T00:25:54.254Z,100093.00
2018-07-24T00:28:24.479Z,100098.00
2018-07-24T00:30:54.870Z,100101.00
2018-07-24T00:33:25.384Z,100092.00
2018-07-24T00:35:55.480Z,100095.00
2018-07-24T00:38:25.544Z,100086.00
2018-07-24T00:40:55.936Z,100090.00
2018-07-24T00:43:26.429Z,100087.00
2018-07-24T00:45:56.618Z,100087.00
2018-07-24T00:48:26.831Z,100088.00
2018-07-24T00:50:56.984Z,100086.00
2018-07-24T00:53:27.269Z,100070.00
2018-07-24T00:55:59.209Z,100076.00
2018-07-24T00:58:29.325Z,100076.00
2018-07-24T01:00:59.492Z,100069.00
2018-07-24T01:03:30.174Z,100067.00
2018-07-24T01:06:00.615Z,100075.00
2018-07-24T01:08:31.403Z,100080.00
2018-07-24T01:11:02.249Z,100081.00
2018-07-24T01:13:34.431Z,100074.00
2018-07-24T01:16:04.546Z,100067.00
2018-07-24T01:18:34.772Z,100073.00
2018-07-24T01:21:05.159Z,100059.00
2018-07-24T01:23:36.403Z,100064.00
2018-07-24T01:26:06.912Z,100061.00
2018-07-24T01:28:37.645Z,100063.00
2018-07-24T01:31:08.286Z,100058.00
2018-07-24T01:33:39.457Z,100058.00
2018-07-24T01:36:09.593Z,100048.00
2018-07-24T01:38:40.931Z,100056.00
2018-07-24T01:41:11.423Z,100047.00
2018-07-24T01:43:41.479Z,100048.00
2018-07-24T01:46:11.726Z,100044.00
2018-07-24T01:48:42.474Z,100049.00
2018-07-24T01:51:12.572Z,100051.00
2018-07-24T01:53:43.105Z,100050.00
2018-07-24T01:56:13.570Z,100051.00
2018-07-24T01:58:43.876Z,100046.00
2018-07-24T02:01:14.036Z,100044.00
2018-07-24T02:03:44.269Z,100042.00
2018-07-24T02:06:14.631Z,100045.00
2018-07-24T02:08:44.638Z,100048.00
2018-07-24T02:11:15.247Z,100047.00
2018-07-24T02:13:45.377Z,100039.00
2018-07-24T02:16:18.340Z,100042.00
2018-07-24T02:18:49.045Z,100040.00
2018-07-24T02:21:19.278Z,100035.00
2018-07-24T02:23:49.644Z,100041.00
2018-07-24T02:26:19.925Z,100035.00
2018-07-24T02:28:50.343Z,100036.00
2018-07-24T02:31:20.849Z,100045.00
2018-07-24T02:33:50.914Z,100032.00
2018-07-24T02:36:21.215Z,100041.00
2018-07-24T02:38:51.563Z,100038.00
2018-07-24T02:41:21.816Z,100040.00
2018-07-24T02:43:52.113Z,100031.00
2018-07-24T02:46:22.342Z,100041.00
2018-07-24T02:48:52.596Z,100045.00
2018-07-24T02:51:22.657Z,100035.00
2018-07-24T02:53:53.587Z,100047.00
2018-07-24T02:56:23.844Z,100041.00
2018-07-24T02:58:54.657Z,100043.00
2018-07-24T03:01:24.869Z,100055.00
2018-07-24T03:04:04.715Z,100049.00
2018-07-24T03:06:35.566Z,100056.00
2018-07-24T03:09:08.943Z,100052.00
2018-07-24T03:11:39.491Z,100039.00
2018-07-24T03:14:10.181Z,100057.00
2018-07-24T03:16:41.246Z,100051.00
2018-07-24T03:19:11.943Z,100055.00
2018-07-24T03:21:42.476Z,100054.00
2018-07-24T03:24:12.473Z,100057.00
2018-07-24T03:26:43.437Z,100058.00
2018-07-24T03:29:13.691Z,100057.00
2018-07-24T03:31:43.766Z,100050.00
2018-07-24T03:34:14.064Z,100057.00
2018-07-24T03:36:44.017Z,100053.00
2018-07-24T03:39:14.244Z,100060.00
2018-07-24T03:41:44.649Z,100058.00
2018-07-24T03:44:15.399Z,100052.00
2018-07-24T03:46:46.444Z,100060.00
2018-07-24T03:49:17.287Z,100056.00
2018-07-24T03:51:48.639Z,100052.00
2018-07-24T03:54:19.898Z,100058.00
2018-07-24T03:56:50.095Z,100057.00
2018-07-24T03:59:20.770Z,100054.00
2018-07-24T04:01:51.139Z,100060.00
2018-07-24T04:04:22.337Z,100055.00
2018-07-24T04:06:52.787Z,100055.00
2018-07-24T04:09:22.945Z,100052.00
2018-07-24T04:11:53.109Z,100049.00
2018-07-24T04:14:23.632Z,100052.00
2018-07-24T04:16:53.875Z,100050.00
2018-07-24T04:19:24.113Z,100047.00
2018-07-24T04:21:54.430Z,100050.00
2018-07-24T04:24:24.830Z,100049.00
2018-07-24T04:26:58.948Z,100051.00
2018-07-24T04:29:29.266Z,100056.00
2018-07-24T04:32:00.857Z,100054.00
2018-07-24T04:34:32.859Z,100046.00
2018-07-24T04:37:03.438Z,100054.00
2018-07-24T04:39:33.866Z,100051.00
2018-07-24T04:42:04.736Z,100053.00
2018-07-24T04:44:34.819Z,100046.00
2018-07-24T04:47:05.077Z,100049.00
2018-07-24T04:49:36.987Z,100052.00
2018-07-24T04:52:09.143Z,100054.00
2018-07-24T04:54:39.259Z,100051.00
2018-07-24T04:57:09.436Z,100049.00
2018-07-24T04:59:40.305Z,100056.00
2018-07-24T05:02:10.620Z,100058.00
2018-07-24T05:04:41.669Z,100060.00
2018-07-24T05:07:12.050Z,100056.00
2018-07-24T05:09:42.136Z,100061.00
2018-07-24T05:12:12.429Z,100064.00
2018-07-24T05:14:42.554Z,100063.00
2018-07-24T05:17:12.890Z,100064.00
2018-07-24T05:19:43.169Z,100062.00
2018-07-24T05:22:13.306Z,100067.00
2018-07-24T05:24:43.607Z,100068.00
2018-07-24T05:27:13.922Z,100078.00
2018-07-24T05:29:44.190Z,100073.00
2018-07-24T05:32:14.782Z,100066.00
2018-07-24T05:34:45.217Z,100063.00
2018-07-24T05:37:15.550Z,100063.00
2018-07-24T05:39:50.686Z,100079.00
2018-07-24T05:42:20.913Z,100078.00
2018-07-24T05:44:51.065Z,100077.00
2018-07-24T05:47:21.240Z,100076.00
2018-07-24T05:49:52.048Z,100078.00
2018-07-24T05:52:22.085Z,100082.00
2018-07-24T05:54:53.852Z,100087.00
2018-07-24T05:57:24.471Z,100082.00
2018-07-24T05:59:55.048Z,100081.00
2018-07-24T06:02:25.278Z,100083.00
2018-07-24T06:04:55.531Z,100089.00
2018-07-24T06:07:25.963Z,100096.00
2018-07-24T06:09:58.354Z,100090.00
2018-07-24T06:12:28.478Z,100094.00
2018-07-24T06:14:59.080Z,100089.00
2018-07-24T06:17:29.333Z,100090.00
2018-07-24T06:19:59.324Z,100089.00
2018-07-24T06:22:29.380Z,100097.00
2018-07-24T06:24:59.838Z,100094.00
2018-07-24T06:27:30.780Z,100095.00
2018-07-24T06:30:00.920Z,100090.00
2018-07-24T06:32:31.986Z,100096.00
2018-07-24T06:35:02.127Z,100099.00
2018-07-24T06:37:32.272Z,100099.00
2018-07-24T06:40:04.671Z,100096.00
2018-07-24T06:42:34.847Z,100096.00
2018-07-24T06:45:06.275Z,100101.00
2018-07-24T06:47:37.358Z,100106.00
2018-07-24T06:50:07.677Z,100099.00
2018-07-24T06:52:38.216Z,100096.00
2018-07-24T06:55:09.468Z,100095.00
2018-07-24T06:57:39.787Z,100094.00
2018-07-24T07:00:10.116Z,100093.00
2018-07-24T07:02:40.310Z,100092.00
2018-07-24T07:05:11.041Z,100090.00
2018-07-24T07:07:41.744Z,100091.00
2018-07-24T07:10:12.869Z,100089.00
2018-07-24T07:12:43.056Z,100089.00
2018-07-24T07:15:13.649Z,100087.00
2018-07-24T07:17:45.255Z,100091.00
2018-07-24T07:20:15.449Z,100087.00
2018-07-24T07:22:45.697Z,100081.00
2018-07-24T07:25:16.157Z,100084.00
2018-07-24T07:27:46.841Z,100078.00
2018-07-24T07:30:17.181Z,100076.00
2018-07-24T07:32:47.262Z,100069.00
2018-07-24T07:35:17.487Z,100076.00
2018-07-24T07:37:47.613Z,100074.00
2018-07-24T07:40:17.902Z,100075.00
2018-07-24T07:42:48.659Z,100067.00
2018-07-24T07:45:20.224Z,100062.00
2018-07-24T07:47:50.811Z,100073.00
2018-07-24T07:50:21.162Z,100058.00
2018-07-24T07:52:52.076Z,100066.00
2018-07-24T07:55:22.745Z,100060.00
2018-07-24T07:57:52.974Z,100068.00
2018-07-24T08:00:23.008Z,100062.00
2018-07-24T08:02:53.764Z,100063.00
2018-07-24T08:05:24.208Z,100062.00
2018-07-24T08:07:54.310Z,100060.00
2018-07-24T08:10:24.629Z,100059.00
2018-07-24T08:12:55.742Z,100056.00
2018-07-24T08:15:26.367Z,100054.00
2018-07-24T08:17:56.548Z,100055.00
2018-07-24T08:20:26.803Z,100061.00
2018-07-24T08:22:57.762Z,100053.00
2018-07-24T08:25:28.393Z,100053.00
2018-07-24T08:27:58.761Z,100053.00
2018-07-24T08:30:28.833Z,100061.00
2018-07-24T08:32:59.236Z,100060.00
2018-07-24T08:35:29.570Z,100052.00
2018-07-24T08:38:01.057Z,100054.00
2018-07-24T08:40:31.302Z,100046.00
2018-07-24T08:43:01.670Z,100044.00
2018-07-24T08:45:31.976Z,100042.00
2018-07-24T08:48:02.162Z,100043.00
2018-07-24T08:50:32.189Z,100036.00
2018-07-24T08:53:02.564Z,100031.00
2018-07-24T08:55:33.112Z,100032.00
2018-07-24T08:58:03.179Z,100032.00
2018-07-24T09:00:33.457Z,100034.00
2018-07-24T09:03:03.643Z,100038.00
2018-07-24T09:05:34.147Z,100024.00
2018-07-24T09:08:04.552Z,100018.00
2018-07-24T09:10:35.022Z,100022.00
2018-07-24T09:13:05.748Z,100030.00
2018-07-24T09:15:35.951Z,100033.00
2018-07-24T09:18:07.188Z,100037.00
2018-07-24T09:20:37.301Z,100041.00
2018-07-24T09:23:07.527Z,100040.00
2018-07-24T09:25:38.029Z,100047.00
2018-07-24T09:28:08.996Z,100038.00
2018-07-24T09:30:39.794Z,100040.00
2018-07-24T09:33:10.512Z,100031.00
2018-07-24T09:35:40.665Z,100034.00
2018-07-24T09:38:11.422Z,100043.00
2018-07-24T09:40:41.422Z,100030.00
2018-07-24T09:43:11.735Z,100027.00
2018-07-24T09:45:42.459Z,100029.00
2018-07-24T09:48:12.949Z,100029.00
2018-07-24T09:50:43.979Z,100028.00
2018-07-24T09:53:14.207Z,100038.00
2018-07-24T09:55:44.356Z,100027.00
2018-07-24T09:58:14.845Z,100034.00
2018-07-24T10:00:50.073Z,100039.00
2018-07-24T10:03:20.627Z,100040.00
2018-07-24T10:05:51.349Z,100034.00
2018-07-24T10:08:21.564Z,100028.00
2018-07-24T10:10:51.729Z,100041.00
2018-07-24T10:13:22.180Z,100025.00
2018-07-24T10:15:52.286Z,100029.00
2018-07-24T10:18:22.437Z,100022.00
2018-07-24T10:20:52.525Z,100021.00
2018-07-24T10:23:23.037Z,100026.00
2018-07-24T10:25:53.813Z,100024.00
2018-07-24T10:28:24.260Z,100016.00
2018-07-24T10:30:54.617Z,100023.00
2018-07-24T10:33:25.126Z,100021.00
2018-07-24T10:35:55.339Z,100015.00
2018-07-24T10:38:25.778Z,100020.00
2018-07-24T10:40:56.971Z,100029.00
2018-07-24T10:43:27.463Z,100022.00
2018-07-24T10:45:57.789Z,100013.00
2018-07-24T10:48:28.169Z,100022.00
2018-07-24T10:50:58.564Z,100030.00
2018-07-24T10:53:29.526Z,100018.00
2018-07-24T10:55:59.908Z,100016.00
2018-07-24T10:58:30.057Z,100018.00
2018-07-24T11:01:00.023Z,100029.00
2018-07-24T11:03:30.725Z,100018.00
2018-07-24T11:06:01.592Z,100016.00
2018-07-24T11:08:31.842Z,100020.00
2018-07-24T11:11:02.193Z,100016.00
2018-07-24T11:13:32.524Z,100018.00
2018-07-24T11:16:03.229Z,100010.00
2018-07-24T11:18:33.269Z,100015.00
2018-07-24T11:21:03.700Z,100021.00
2018-07-24T11:23:33.921Z,100016.00
2018-07-24T11:26:04.076Z,100025.00
2018-07-24T11:28:35.201Z,100025.00
2018-07-24T11:31:05.589Z,100030.00
2018-07-24T11:33:36.381Z,100027.00
2018-07-24T11:36:06.536Z,100022.00
2018-07-24T11:38:36.845Z,100025.00
2018-07-24T11:41:07.202Z,100029.00
2018-07-24T11:43:37.638Z,100034.00
2018-07-24T11:46:07.617Z,100036.00
2018-07-24T11:48:37.882Z,100028.00
2018-07-24T11:51:08.312Z,100036.00
2018-07-24T11:53:38.629Z,100030.00
2018-07-24T11:56:10.209Z,100026.00
2018-07-24T11:58:40.686Z,100028.00
2018-07-24T12:01:11.155Z,100025.00
2018-07-24T12:03:41.813Z,100038.00
2018-07-24T12:06:12.551Z,99989.00
2018-07-24T12:08:43.036Z,100026.00
2018-07-24T12:11:13.648Z,100023.00
2018-07-24T12:13:50.654Z,100024.00
2018-07-24T12:16:21.315Z,100020.00
2018-07-24T12:18:51.506Z,100024.00
2018-07-24T12:21:21.746Z,100028.00
2018-07-24T12:23:51.939Z,100024.00
2018-07-24T12:26:22.328Z,100027.00
2018-07-24T12:28:52.469Z,100024.00
2018-07-24T12:31:23.230Z,100035.00
2018-07-24T12:33:53.591Z,100035.00
2018-07-24T12:36:25.091Z,100039.00
2018-07-24T12:38:55.533Z,100033.00
2018-07-24T12:41:26.784Z,100033.00
2018-07-24T12:43:56.803Z,100032.00
2018-07-24T12:46:27.099Z,100028.00
2018-07-24T12:48:57.242Z,100023.00
2018-07-24T12:51:28.202Z,100029.00
2018-07-24T12:53:58.357Z,100034.00
2018-07-24T12:56:28.842Z,100022.00
2018-07-24T12:58:59.048Z,100028.00
2018-07-24T13:01:29.586Z,100022.00
2018-07-24T13:04:00.301Z,100021.00
2018-07-24T13:06:31.286Z,100022.00
2018-07-24T13:09:01.586Z,100023.00
2018-07-24T13:11:31.703Z,100018.00
2018-07-24T13:14:02.109Z,100025.00
2018-07-24T13:16:32.269Z,100018.00
2018-07-24T13:19:04.301Z,100014.00
2018-07-24T13:21:34.720Z,100016.00
2018-07-24T13:24:04.734Z,100021.00
2018-07-24T13:26:35.196Z,100026.00
2018-07-24T13:29:05.609Z,100022.00
2018-07-24T13:31:35.697Z,100026.00
2018-07-24T13:34:06.421Z,100022.00
2018-07-24T13:36:36.819Z,100015.00
2018-07-24T13:39:11.669Z,100006.00
2018-07-24T13:41:41.973Z,100013.00
2018-07-24T13:44:12.644Z,100012.00
2018-07-24T13:46:42.808Z,100000.00
2018-07-24T13:49:13.012Z,100018.00
2018-07-24T13:51:42.998Z,100017.00
2018-07-24T13:54:13.803Z,100007.00
2018-07-24T13:56:44.052Z,100014.00
2018-07-24T13:59:14.529Z,100010.00
2018-07-24T14:01:44.965Z,100013.00
2018-07-24T14:04:15.082Z,100016.00
2018-07-24T14:06:45.205Z,100017.00
2018-07-24T14:09:15.263Z,100007.00
2018-07-24T14:11:45.346Z,100018.00
2018-07-24T14:14:15.693Z,99994.00
2018-07-24T14:16:46.077Z,99986.00
2018-07-24T14:19:16.074Z,99986.00
2018-07-24T14:21:47.720Z,99994.00
2018-07-24T14:24:17.778Z,99999.00
2018-07-24T14:26:48.265Z,99991.00
2018-07-24T14:29:18.425Z,99995.00
2018-07-24T14:31:48.660Z,99991.00
2018-07-24T14:34:19.456Z,100012.00
2018-07-24T14:36:49.588Z,99995.00
2018-07-24T14:39:20.107Z,99993.00
2018-07-24T14:41:51.020Z,100026.00
2018-07-24T14:44:22.364Z,100004.00
2018-07-24T14:46:52.419Z,100024.00
2018-07-24T14:49:22.634Z,100000.00
2018-07-24T14:51:52.566Z,100001.00
2018-07-24T14:54:23.221Z,100001.00
2018-07-24T14:56:53.446Z,100007.00
2018-07-24T14:59:24.144Z,100032.00
2018-07-24T15:01:54.191Z,99999.00
2018-07-24T15:04:24.649Z,100030.00
2018-07-24T15:06:56.134Z,100004.00
2018-07-24T15:09:28.781Z,100018.00
2018-07-24T15:11:59.552Z,100027.00
2018-07-24T15:14:30.130Z,100022.00
2018-07-24T15:17:00.370Z,100028.00
2018-07-24T15:19:30.550Z,100000.00
2018-07-24T15:22:01.004Z,99995.00
2018-07-24T15:24:31.081Z,99995.00
2018-07-24T15:27:02.009Z,99997.00
2018-07-24T15:29:32.974Z,100010.00
2018-07-24T15:32:03.141Z,100003.00
2018-07-24T15:34:33.619Z,100022.00
2018-07-24T15:37:03.972Z,100023.00
2018-07-24T15:39:34.291Z,100020.00
2018-07-24T15:42:04.489Z,100009.00
2018-07-24T15:44:35.974Z,100006.00
2018-07-24T15:47:12.823Z,100015.00
2018-07-24T15:49:43.432Z,100010.00
2018-07-24T15:52:13.613Z,100013.00
2018-07-24T15:54:44.137Z,100010.00
2018-07-24T15:57:14.726Z,100005.00
2018-07-24T15:59:45.434Z,100015.00
2018-07-24T16:02:15.418Z,100013.00
2018-07-24T16:04:45.720Z,99975.00
2018-07-24T16:07:15.835Z,100003.00
2018-07-24T16:09:46.214Z,100019.00
2018-07-24T16:12:17.353Z,100002.00
2018-07-24T16:14:48.495Z,100018.00
2018-07-24T16:17:18.923Z,100002.00
2018-07-24T16:19:49.220Z,100012.00
2018-07-24T16:22:19.604Z,100022.00
2018-07-24T16:24:50.342Z,100024.00
2018-07-24T16:27:21.473Z,100025.00
2018-07-24T16:29:53.575Z,100027.00
2018-07-24T16:32:24.253Z,100030.00
2018-07-24T16:34:54.474Z,100022.00
2018-07-24T16:37:24.646Z,100011.00
2018-07-24T16:39:55.015Z,100015.00
2018-07-24T16:42:25.573Z,100013.00
2018-07-24T16:44:55.807Z,100007.00
2018-07-24T16:47:26.742Z,100014.00
2018-07-24T16:49:56.977Z,100007.00
2018-07-24T16:52:26.992Z,100010.00
2018-07-24T16:54:57.273Z,100016.00
2018-07-24T16:57:27.912Z,100011.00
2018-07-24T16:59:58.964Z,100020.00
2018-07-24T17:02:33.963Z,100013.00
2018-07-24T17:05:04.473Z,100018.00
2018-07-24T17:07:34.886Z,99998.00
2018-07-24T17:10:06.073Z,99999.00
2018-07-24T17:12:36.097Z,99999.00
2018-07-24T17:15:07.631Z,100006.00
2018-07-24T17:17:37.719Z,100022.00
2018-07-24T17:20:07.767Z,100018.00
2018-07-24T17:22:37.934Z,100027.00
2018-07-24T17:25:08.234Z,100019.00
2018-07-24T17:27:38.430Z,100017.00
2018-07-24T17:30:09.503Z,99998.00
2018-07-24T17:32:39.723Z,100018.00
2018-07-24T17:35:10.330Z,100022.00
2018-07-24T17:37:41.013Z,100015.00
2018-07-24T17:40:11.162Z,100010.00
2018-07-24T17:42:42.011Z,100023.00
2018-07-24T17:45:19.544Z,100018.00
2018-07-24T17:47:49.695Z,100002.00
2018-07-24T17:50:19.900Z,100015.00
2018-07-24T17:52:51.164Z,99998.00
2018-07-24T17:55:22.586Z,100008.00
2018-07-24T17:57:53.205Z,99998.00
2018-07-24T18:00:23.381Z,100012.00
2018-07-24T18:02:53.837Z,100014.00
2018-07-24T18:05:26.912Z,100016.00
2018-07-24T18:07:58.583Z,100018.00
2018-07-24T18:10:30.104Z,100032.00
2018-07-24T18:13:00.278Z,100040.00
2018-07-24T18:15:31.701Z,100041.00
2018-07-24T18:18:02.941Z,100043.00
2018-07-24T18:20:33.064Z,100056.00
2018-07-24T18:23:03.325Z,100057.00
2018-07-24T18:25:33.539Z,100056.00
2018-07-24T18:28:03.896Z,100061.00
2018-07-24T18:30:34.428Z,100056.00
2018-07-24T18:33:04.750Z,100062.00
2018-07-24T18:35:35.756Z,100078.00
2018-07-24T18:38:06.335Z,100073.00
2018-07-24T18:40:36.677Z,100083.00
2018-07-24T18:43:07.709Z,100079.00
2018-07-24T18:45:38.004Z,100092.00
2018-07-24T18:48:08.942Z,100088.00
2018-07-24T18:50:40.102Z,100085.00
2018-07-24T18:53:10.229Z,100083.00
2018-07-24T18:55:41.462Z,100083.00
2018-07-24T18:58:12.359Z,100085.00
2018-07-24T19:00:43.129Z,100095.00
2018-07-24T19:03:13.374Z,100094.00
2018-07-24T19:05:43.818Z,100098.00
2018-07-24T19:08:14.026Z,100100.00
2018-07-24T19:10:44.440Z,100109.00
2018-07-24T19:13:15.346Z,100112.00
2018-07-24T19:15:45.652Z,100114.00
2018-07-24T19:18:16.272Z,100125.00
2018-07-24T19:20:46.743Z,100120.00
2018-07-24T19:23:16.862Z,100117.00
2018-07-24T19:25:48.130Z,100126.00
2018-07-24T19:28:18.215Z,100127.00
2018-07-24T19:30:48.449Z,100126.00
2018-07-24T19:33:19.494Z,100124.00
2018-07-24T19:35:49.756Z,100130.00
2018-07-24T19:38:20.404Z,100130.00
2018-07-24T19:40:50.609Z,100142.00
2018-07-24T19:43:21.674Z,100153.00
2018-07-24T19:45:52.375Z,100149.00
2018-07-24T19:48:22.827Z,100143.00
2018-07-24T19:50:53.099Z,100144.00
2018-07-24T19:53:23.329Z,100146.00
2018-07-24T19:55:53.598Z,100149.00
2018-07-24T19:58:23.688Z,100146.00
2018-07-24T20:00:54.723Z,100146.00
2018-07-24T20:03:25.555Z,100161.00
2018-07-24T20:05:56.804Z,100160.00
2018-07-24T20:08:28.087Z,100165.00
2018-07-24T20:10:58.266Z,100161.00
2018-07-24T20:13:29.379Z,100158.00
2018-07-24T20:16:00.774Z,100169.00
2018-07-24T20:18:31.588Z,100168.00
2018-07-24T20:21:01.729Z,100173.00
2018-07-24T20:23:31.946Z,100171.00
2018-07-24T20:26:02.219Z,100177.00
2018-07-24T20:28:33.451Z,100175.00
2018-07-24T20:31:03.577Z,100179.00
2018-07-24T20:33:34.421Z,100189.00
2018-07-24T20:36:04.714Z,100190.00
2018-07-24T20:38:35.123Z,100195.00
2018-07-24T20:41:05.515Z,100203.00
2018-07-24T20:43:35.692Z,100201.00
2018-07-24T20:46:06.537Z,100191.00
2018-07-24T20:48:37.737Z,100202.00
2018-07-24T20:51:07.956Z,100208.00
2018-07-24T20:53:39.429Z,100211.00
2018-07-24T20:56:09.637Z,100215.00
2018-07-24T20:58:40.006Z,100214.00
2018-07-24T21:01:11.568Z,100214.00
2018-07-24T21:03:42.088Z,100213.00
2018-07-24T21:06:13.550Z,100208.00
2018-07-24T21:08:44.551Z,100214.00
2018-07-24T21:11:15.349Z,100210.00
2018-07-24T21:13:46.959Z,100217.00
2018-07-24T21:16:18.079Z,100217.00
2018-07-24T21:18:48.677Z,100213.00
2018-07-24T21:21:20.040Z,100219.00
2018-07-24T21:23:50.214Z,100221.00
2018-07-24T21:26:21.484Z,100229.00
2018-07-24T21:28:51.609Z,100222.00
2018-07-24T21:31:22.083Z,100224.00
2018-07-24T21:33:52.370Z,100224.00
2018-07-24T21:36:23.477Z,100224.00
2018-07-24T21:38:54.370Z,100226.00
2018-07-24T21:41:24.993Z,100226.00
2018-07-24T21:43:56.215Z,100225.00
2018-07-24T21:46:27.560Z,100229.00
2018-07-24T21:48:58.233Z,100232.00
2018-07-24T21:51:28.964Z,100233.00
2018-07-24T21:53:59.565Z,100229.00
2018-07-24T21:56:30.811Z,100233.00
2018-07-24T21:59:01.097Z,100228.00
2018-07-24T22:01:31.354Z,100232.00
2018-07-24T22:04:02.356Z,100239.00
2018-07-24T22:06:33.004Z,100238.00
2018-07-24T22:09:03.675Z,100235.00
2018-07-24T22:11:34.015Z,100243.00
2018-07-24T22:14:05.208Z,100246.00
2018-07-24T22:16:35.304Z,100250.00
2018-07-24T22:19:05.739Z,100242.00
2018-07-24T22:21:35.800Z,100252.00
2018-07-24T22:24:06.153Z,100248.00
2018-07-24T22:26:36.294Z,100253.00
2018-07-24T22:29:06.543Z,100260.00
2018-07-24T22:31:37.337Z,100257.00
2018-07-24T22:34:08.371Z,100259.00
2018-07-24T22:36:38.597Z,100253.00
2018-07-24T22:39:11.834Z,100257.00
2018-07-24T22:41:43.101Z,100253.00
2018-07-24T22:44:14.632Z,100262.00
2018-07-24T22:46:44.732Z,100270.00
2018-07-24T22:49:15.921Z,100264.00
2018-07-24T22:51:46.274Z,100264.00
2018-07-24T22:54:16.887Z,100270.00
2018-07-24T22:56:47.261Z,100274.00
2018-07-24T22:59:18.474Z,100271.00
2018-07-24T23:01:48.924Z,100261.00
2018-07-24T23:04:19.789Z,100266.00
2018-07-24T23:06:50.369Z,100266.00
2018-07-24T23:09:20.821Z,100274.00
2018-07-24T23:11:51.091Z,100269.00
2018-07-24T23:14:21.455Z,100270.00
2018-07-24T23:16:52.593Z,100263.00
2018-07-24T23:19:22.937Z,100260.00
2018-07-24T23:21:54.365Z,100257.00
2018-07-24T23:24:24.651Z,100264.00
2018-07-24T23:26:55.010Z,100260.00
2018-07-24T23:29:25.263Z,100262.00
2018-07-24T23:31:56.101Z,100261.00
2018-07-24T23:34:27.281Z,100248.00
2018-07-24T23:36:58.485Z,100253.00
2018-07-24T23:39:28.584Z,100254.00
2018-07-24T23:41:59.017Z,100258.00
2018-07-24T23:44:29.869Z,100259.00
2018-07-24T23:47:00.439Z,100254.00
2018-07-24T23:49:30.723Z,100266.00
2018-07-24T23:52:00.783Z,100258.00
2018-07-24T23:54:30.998Z,100257.00
2018-07-24T23:57:01.116Z,100261.00
2018-07-24T23:59:31.431Z,100266.00
